Time;durP1;ratioP1;P1;durP2;ratioP2;P2;SDS_P1;SDS_P2;PMS_P1;PMS_P2;Temp;Humidity;BMP_temperature;BMP_pressure;BME280_temperature;BME280_humidity;BME280_pressure;Samples;Min_cycle;Max_cycle;Signal;HPM_P1;HPM_P2
2021/10/13 00:00:38;;;;;;;3.97;2.33;;;;;;;6.76;82.87;97490.50;6255554;28;20284;-74
2021/10/13 00:03:40;;;;;;;2.70;2.30;;;;;;;6.81;83.08;97504.97;6260392;28;20556;-74
2021/10/13 00:06:42;;;;;;;2.40;2.20;;;;;;;6.80;83.15;97502.44;6237629;28;20199;-75
2021/10/13 00:09:45;;;;;;;3.40;1.90;;;;;;;6.83;83.14;97510.94;6240544;28;20683;-75
2021/10/13 00:12:48;;;;;;;2.70;1.97;;;;;;;6.85;83.19;97516.94;6257853;28;20191;-74
2021/10/13 00:15:50;;;;;;;4.70;2.10;;;;;;;6.86;83.57;97515.16;6239497;28;20186;-74
2021/10/13 00:18:51;;;;;;;2.40;1.70;;;;;;;6.88;83.69;97516.75;6241463;28;20274;-75
2021/10/13 00:21:53;;;;;;;1.70;1.50;;;;;;;6.88;83.32;97523.75;6243010;28;20231;-74
2021/10/13 00:24:56;;;;;;;2.17;1.83;;;;;;;6.87;83.52;97522.09;6258240;28;20231;-74
2021/10/13 00:27:57;;;;;;;1.47;1.33;;;;;;;6.83;83.49;97524.06;6258091;28;20216;-74
2021/10/13 00:30:59;;;;;;;2.23;1.70;;;;;;;6.84;83.59;97532.78;6255981;28;20227;-74
2021/10/13 00:34:01;;;;;;;2.07;1.57;;;;;;;6.82;83.18;97532.88;6258473;28;20567;-74
2021/10/13 00:37:03;;;;;;;2.60;1.60;;;;;;;6.78;83.67;97527.97;6258838;28;20196;-75
2021/10/13 00:40:06;;;;;;;1.70;1.53;;;;;;;6.72;83.44;97528.34;6241329;28;20227;-75
2021/10/13 00:43:08;;;;;;;1.30;1.20;;;;;;;6.72;83.20;97533.59;6241069;28;20598;-75
2021/10/13 00:46:10;;;;;;;1.83;1.60;;;;;;;6.69;83.68;97525.94;6257887;28;20201;-75
2021/10/13 00:49:12;;;;;;;1.47;1.37;;;;;;;6.65;83.88;97525.31;6258094;28;20197;-75
2021/10/13 00:52:16;;;;;;;1.27;1.17;;;;;;;6.53;82.97;97523.50;6241887;28;20231;-75
2021/10/13 00:55:19;;;;;;;1.43;1.27;;;;;;;6.46;83.18;97524.84;6239515;28;20204;-73
2021/10/13 00:58:21;;;;;;;1.53;1.30;;;;;;;6.39;83.27;97529.63;6257537;28;20651;-74
2021/10/13 01:01:58;;;;;;;1.73;1.17;;;;;;;6.43;83.34;97532.91;6257849;28;20761;-73
2021/10/13 01:05:29;;;;;;;1.13;1.03;;;;;;;6.45;83.03;97538.91;6253215;28;20251;-73
2021/10/13 01:09:08;;;;;;;1.63;1.10;;;;;;;6.46;83.17;97548.44;6256663;28;20579;-73
2021/10/13 01:12:27;;;;;;;2.00;0.80;;;;;;;6.45;83.79;97565.13;6258188;28;20199;-74
2021/10/13 01:15:48;;;;;;;1.20;1.10;;;;;;;6.47;83.32;97568.47;6255700;28;20189;-74
2021/10/13 01:18:54;;;;;;;1.43;1.20;;;;;;;6.45;83.18;97567.72;6255601;28;20710;-74
2021/10/13 01:22:15;;;;;;;1.43;0.93;;;;;;;6.46;83.36;97574.66;6258672;28;20688;-74
2021/10/13 01:25:43;;;;;;;1.10;1.00;;;;;;;6.44;83.99;97585.25;6258985;28;20573;-74
2021/10/13 01:28:46;;;;;;;1.43;0.93;;;;;;;6.41;83.96;97598.53;6237562;28;20317;-74
2021/10/13 01:32:12;;;;;;;2.07;1.47;;;;;;;6.17;81.83;97589.66;6257803;28;20187;-74
2021/10/13 01:35:18;;;;;;;1.40;1.30;;;;;;;6.11;82.51;97600.50;6257418;28;20202;-74
2021/10/13 01:38:23;;;;;;;1.40;1.30;;;;;;;6.09;82.73;97605.03;6254650;28;20188;-74
2021/10/13 01:41:28;;;;;;;2.73;1.50;;;;;;;6.09;83.22;97611.06;6240450;28;20872;-74
2021/10/13 01:44:32;;;;;;;1.80;1.60;;;;;;;6.06;83.53;97607.84;6257969;28;20268;-74
2021/10/13 01:47:38;;;;;;;3.37;1.60;;;;;;;6.08;84.10;97605.97;6257688;28;20271;-74
2021/10/13 01:50:41;;;;;;;2.53;1.60;;;;;;;6.03;83.96;97610.63;6256184;28;20214;-74
2021/10/13 01:53:45;;;;;;;2.70;1.40;;;;;;;6.03;83.44;97601.00;6240551;28;20318;-74
2021/10/13 01:56:49;;;;;;;1.57;1.30;;;;;;;6.00;83.50;97597.72;6239972;28;20195;-74
2021/10/13 01:59:56;;;;;;;1.73;1.43;;;;;;;5.97;83.45;97611.03;6239349;28;20184;-74
2021/10/13 02:03:00;;;;;;;1.27;1.17;;;;;;;5.89;83.81;97611.50;6258302;28;20213;-74
2021/10/13 02:06:04;;;;;;;2.23;1.40;;;;;;;5.88;83.84;97613.28;6253259;28;20234;-73
2021/10/13 02:09:07;;;;;;;2.10;1.27;;;;;;;5.88;83.95;97613.28;6257682;28;20698;-73
2021/10/13 02:12:10;;;;;;;1.03;1.00;;;;;;;5.87;84.10;97616.81;6257429;28;20200;-73
2021/10/13 02:15:14;;;;;;;1.20;1.10;;;;;;;5.87;83.85;97618.59;6238629;28;20652;-74
2021/10/13 02:18:23;;;;;;;1.00;0.90;;;;;;;5.87;83.64;97619.44;6254891;28;20667;-74
2021/10/13 02:21:26;;;;;;;1.43;0.83;;;;;;;5.89;83.67;97628.03;6255200;28;20528;-74
2021/10/13 02:25:00;;;;;;;2.00;0.87;;;;;;;5.88;83.91;97628.16;6257112;28;20573;-74
2021/10/13 02:28:08;;;;;;;3.20;0.90;;;;;;;5.87;83.63;97634.31;6136501;29;20576;-74
2021/10/13 02:31:10;;;;;;;1.33;1.03;;;;;;;5.83;84.09;97638.03;6135583;29;20626;-74
2021/10/13 02:34:14;;;;;;;3.00;1.40;;;;;;;5.76;83.62;97637.59;6135492;29;20311;-74
2021/10/13 02:37:16;;;;;;;1.57;1.10;;;;;;;5.73;84.16;97644.78;6138485;29;20694;-74
2021/10/13 02:40:18;;;;;;;1.40;1.03;;;;;;;5.73;84.22;97650.84;6136521;28;20244;-74
2021/10/13 02:43:20;;;;;;;2.20;1.30;;;;;;;5.69;83.96;97656.41;6139184;29;20231;-74
2021/10/13 02:46:33;;;;;;;2.10;1.33;;;;;;;5.68;84.58;97657.31;6140467;29;20295;-75
2021/10/13 02:49:55;;;;;;;3.03;1.40;;;;;;;5.63;84.00;97665.44;6138777;29;20203;-74
2021/10/13 02:53:35;;;;;;;2.17;1.73;;;;;;;5.61;84.09;97672.53;6140969;29;20707;-74
2021/10/13 02:56:43;;;;;;;3.00;1.83;;;;;;;5.64;84.49;97690.69;6132601;29;20233;-74
2021/10/13 02:59:50;;;;;;;2.30;2.10;;;;;;;5.71;84.90;97693.78;6141050;29;20773;-74
2021/10/13 03:02:57;;;;;;;2.90;2.30;;;;;;;5.76;84.55;97697.81;6139990;28;20203;-73
2021/10/13 03:06:01;;;;;;;3.30;2.70;;;;;;;5.77;84.55;97698.66;6193791;28;20591;-73
2021/10/13 03:09:07;;;;;;;3.30;3.00;;;;;;;5.73;84.95;97697.16;6190585;28;20251;-73
2021/10/13 03:12:11;;;;;;;2.57;2.20;;;;;;;5.78;84.49;97695.94;6189427;28;20195;-73
2021/10/13 03:15:13;;;;;;;2.30;2.10;;;;;;;5.81;84.51;97694.91;6187415;28;20189;-73
2021/10/13 03:18:16;;;;;;;2.40;2.20;;;;;;;5.83;84.13;97701.72;6189089;28;20194;-73
2021/10/13 03:21:23;;;;;;;3.13;2.30;;;;;;;5.82;84.93;97700.03;6195929;28;21257;-74
2021/10/13 03:24:25;;;;;;;3.50;2.60;;;;;;;5.83;84.50;97703.50;6187686;28;20670;-73
2021/10/13 03:27:27;;;;;;;2.60;2.33;;;;;;;5.83;85.08;97703.50;6188665;28;20216;-73
2021/10/13 03:30:30;;;;;;;3.50;2.40;;;;;;;5.84;84.73;97718.28;6235683;28;20224;-73
2021/10/13 03:33:33;;;;;;;3.00;2.40;;;;;;;5.85;85.29;97715.59;6261190;28;20195;-73
2021/10/13 03:36:51;;;;;;;3.50;2.40;;;;;;;5.85;84.58;97726.06;6259511;28;20272;-73
2021/10/13 03:39:56;;;;;;;2.47;1.97;;;;;;;5.84;85.05;97736.63;6260363;28;20200;-73
2021/10/13 03:42:58;;;;;;;3.90;2.60;;;;;;;5.83;85.40;97745.41;6258936;28;20674;-74
2021/10/13 03:46:00;;;;;;;2.30;2.10;;;;;;;5.79;85.08;97744.75;6258912;28;20314;-74
2021/10/13 03:49:02;;;;;;;2.97;2.67;;;;;;;5.78;85.16;97750.09;6241909;28;20203;-73
2021/10/13 03:52:04;;;;;;;4.20;2.50;;;;;;;5.75;84.72;97751.13;6259467;28;20227;-73
2021/10/13 03:55:09;;;;;;;2.50;2.27;;;;;;;5.74;84.71;97756.44;6261135;28;20196;-73
2021/10/13 03:58:11;;;;;;;3.53;2.33;;;;;;;5.70;85.08;97757.53;6259909;28;20195;-73
2021/10/13 04:01:14;;;;;;;4.80;2.30;;;;;;;5.67;84.69;97750.72;6257944;28;20191;-74
2021/10/13 04:04:17;;;;;;;4.20;2.07;;;;;;;5.68;84.51;97762.91;6259074;28;20219;-73
2021/10/13 04:07:19;;;;;;;2.40;2.20;;;;;;;5.70;83.97;97760.16;6255503;28;20223;-73
2021/10/13 04:10:20;;;;;;;2.93;2.30;;;;;;;5.67;84.29;97766.44;6260810;28;20187;-74
2021/10/13 04:13:22;;;;;;;2.57;2.37;;;;;;;5.67;84.31;97766.44;6258718;28;20202;-74
2021/10/13 04:16:25;;;;;;;3.53;2.77;;;;;;;5.65;84.31;97760.44;6258727;28;20193;-73
2021/10/13 04:19:27;;;;;;;3.70;2.63;;;;;;;5.65;84.82;97770.06;6258224;28;20191;-73
2021/10/13 04:22:29;;;;;;;2.57;2.37;;;;;;;5.65;84.84;97770.91;6259260;28;20303;-74
2021/10/13 04:25:30;;;;;;;2.47;2.27;;;;;;;5.65;84.36;97773.53;6259207;28;20211;-74
2021/10/13 04:28:34;;;;;;;3.00;2.30;;;;;;;5.57;83.60;97779.22;6257772;28;20207;-75
2021/10/13 04:31:38;;;;;;;4.37;2.20;;;;;;;5.56;83.78;97776.69;6260700;28;20192;-74
2021/10/13 04:34:40;;;;;;;11.43;2.27;;;;;;;5.51;83.80;97773.50;6254264;28;20222;-74
2021/10/13 04:37:42;;;;;;;3.27;2.43;;;;;;;5.43;83.57;97771.31;6258119;28;20706;-73
2021/10/13 04:40:44;;;;;;;2.83;2.50;;;;;;;5.41;83.69;97775.81;6259774;28;20738;-73
2021/10/13 04:43:46;;;;;;;3.30;3.00;;;;;;;5.41;84.14;97777.56;6258374;28;20208;-73
2021/10/13 04:46:48;;;;;;;3.03;2.50;;;;;;;5.40;83.97;97779.34;6241257;28;20560;-74
2021/10/13 04:49:50;;;;;;;2.50;2.27;;;;;;;5.38;83.36;97777.78;6240634;28;20417;-74
2021/10/13 04:52:52;;;;;;;5.90;3.10;;;;;;;5.40;83.50;97774.13;6259261;28;20287;-74
2021/10/13 04:55:54;;;;;;;3.57;3.00;;;;;;;5.35;83.49;97776.16;6258177;28;20611;-74
2021/10/13 04:58:56;;;;;;;4.17;2.93;;;;;;;5.27;84.26;97786.25;6256437;28;20664;-73
2021/10/13 05:01:58;;;;;;;4.57;2.70;;;;;;;5.13;84.44;97784.41;6241112;28;20583;-73
2021/10/13 05:05:00;;;;;;;2.93;2.47;;;;;;;5.10;83.71;97788.94;6254158;28;20204;-74
2021/10/13 05:08:02;;;;;;;2.93;2.67;;;;;;;5.06;83.42;97798.75;6241660;28;20652;-74
2021/10/13 05:11:04;;;;;;;3.13;2.83;;;;;;;5.02;84.27;97799.00;6258890;28;20435;-74
2021/10/13 05:14:06;;;;;;;2.80;2.60;;;;;;;4.98;83.62;97807.97;6256977;28;20192;-73
2021/10/13 05:17:08;;;;;;;3.10;2.57;;;;;;;4.90;84.44;97816.22;6258284;28;20215;-73
2021/10/13 05:20:11;;;;;;;3.17;2.87;;;;;;;4.86;84.03;97819.94;6257690;28;20198;-73
2021/10/13 05:23:12;;;;;;;3.07;2.87;;;;;;;4.82;84.78;97815.81;6258636;28;20206;-73
2021/10/13 05:26:20;;;;;;;3.50;3.20;;;;;;;4.77;84.66;97826.53;6254537;28;20551;-73
2021/10/13 05:29:23;;;;;;;3.93;3.57;;;;;;;4.76;85.01;97830.06;6255454;28;20605;-73
2021/10/13 05:32:24;;;;;;;4.20;3.27;;;;;;;4.75;84.65;97838.84;6258832;28;20284;-73
2021/10/13 05:35:26;;;;;;;3.57;3.27;;;;;;;4.76;84.12;97845.75;6257078;28;20191;-73
2021/10/13 05:38:28;;;;;;;3.40;3.10;;;;;;;4.72;84.87;97848.59;6239884;28;20192;-73
2021/10/13 05:41:30;;;;;;;5.73;3.40;;;;;;;4.69;84.48;97851.41;6240117;28;20341;-73
2021/10/13 05:44:33;;;;;;;6.23;3.27;;;;;;;4.69;83.90;97864.47;6258380;28;20570;-73
2021/10/13 05:47:34;;;;;;;6.13;3.97;;;;;;;4.67;84.36;97866.31;6238772;28;20570;-73
2021/10/13 05:50:36;;;;;;;6.23;3.87;;;;;;;4.69;84.36;97870.53;6239921;28;20288;-73
2021/10/13 05:53:39;;;;;;;4.60;3.90;;;;;;;4.70;84.32;97872.22;6240254;28;20198;-73
2021/10/13 05:56:40;;;;;;;3.97;3.60;;;;;;;4.71;84.15;97876.53;6236629;28;20623;-73
2021/10/13 05:59:44;;;;;;;5.97;4.60;;;;;;;4.72;83.44;97882.59;6254250;28;20218;-74
2021/10/13 06:02:47;;;;;;;4.87;3.83;;;;;;;4.79;83.59;97881.34;6238645;28;20201;-74
2021/10/13 06:05:50;;;;;;;6.10;3.03;;;;;;;4.82;84.03;97887.25;6256165;28;20282;-73
2021/10/13 06:08:52;;;;;;;4.70;3.47;;;;;;;4.85;83.40;97898.47;6256013;28;20758;-73
2021/10/13 06:11:54;;;;;;;4.00;3.63;;;;;;;4.85;83.70;97901.94;6256129;28;20284;-72
2021/10/13 06:14:56;;;;;;;3.57;3.27;;;;;;;4.92;83.50;97902.44;6258235;28;20184;-71
2021/10/13 06:17:57;;;;;;;4.50;3.77;;;;;;;4.98;83.21;97916.03;6244215;28;20246;-72
2021/10/13 06:21:00;;;;;;;5.87;3.73;;;;;;;5.02;82.80;97914.09;6258153;28;20279;-73
2021/10/13 06:24:02;;;;;;;4.77;3.70;;;;;;;5.06;83.20;97924.31;6260864;28;20203;-73
2021/10/13 06:27:04;;;;;;;6.00;4.40;;;;;;;5.23;82.91;97919.91;6262414;28;20563;-73
2021/10/13 06:30:06;;;;;;;3.80;3.47;;;;;;;5.38;83.07;97938.25;6259357;28;20238;-72
2021/10/13 06:33:08;;;;;;;4.30;3.90;;;;;;;5.46;81.97;97936.06;6260275;28;20187;-72
2021/10/13 06:36:11;;;;;;;3.57;3.00;;;;;;;5.54;81.03;97943.47;6241333;28;20203;-72
2021/10/13 06:39:12;;;;;;;5.87;3.23;;;;;;;5.59;80.62;97958.94;6260654;28;20570;-73
2021/10/13 06:42:14;;;;;;;4.17;3.00;;;;;;;5.67;80.90;97957.56;6259087;28;20245;-73
2021/10/13 06:45:17;;;;;;;4.83;3.00;;;;;;;5.73;79.61;97954.59;6241406;28;20213;-73
2021/10/13 06:48:20;;;;;;;6.33;3.47;;;;;;;5.76;79.50;97967.53;6243372;28;20203;-73
2021/10/13 06:51:22;;;;;;;4.10;3.13;;;;;;;5.82;78.59;97963.69;6254850;28;20196;-73
2021/10/13 06:54:24;;;;;;;4.90;2.70;;;;;;;5.87;78.05;97977.41;6260183;28;20278;-73
2021/10/13 06:57:26;;;;;;;3.33;2.73;;;;;;;5.95;77.25;97976.97;6259767;28;20194;-73
2021/10/13 07:00:28;;;;;;;3.60;2.47;;;;;;;5.97;76.78;97973.34;6257500;28;20230;-73
2021/10/13 07:03:31;;;;;;;3.63;2.63;;;;;;;6.03;76.69;97990.47;6260129;28;20194;-73
2021/10/13 07:06:32;;;;;;;4.07;2.97;;;;;;;6.07;76.55;97992.00;6241527;28;20237;-73
2021/10/13 07:09:34;;;;;;;5.23;3.10;;;;;;;6.15;76.46;97989.78;6260280;28;20188;-73
2021/10/13 07:12:36;;;;;;;3.80;2.70;;;;;;;6.15;75.79;97995.03;6240530;28;20199;-73
2021/10/13 07:15:38;;;;;;;4.87;2.83;;;;;;;6.13;74.94;97992.50;6241012;28;20613;-73
2021/10/13 07:18:40;;;;;;;3.47;2.93;;;;;;;6.21;75.22;97987.66;6256720;28;20196;-73
2021/10/13 07:21:43;;;;;;;3.77;2.93;;;;;;;6.36;76.02;98006.06;6242747;28;20195;-73
2021/10/13 07:24:45;;;;;;;4.97;2.80;;;;;;;6.43;75.91;97995.13;6259717;28;20297;-72
2021/10/13 07:27:47;;;;;;;4.23;3.07;;;;;;;6.54;74.93;97990.09;6258052;28;20222;-73
2021/10/13 07:30:49;;;;;;;3.53;2.30;;;;;;;6.70;74.82;98003.13;6216286;28;1248920;-73
2021/10/13 07:33:50;;;;;;;6.30;2.57;;;;;;;6.83;75.24;98001.47;6241338;28;20196;-73
2021/10/13 07:36:52;;;;;;;3.60;2.70;;;;;;;6.90;74.81;98005.41;6242339;28;20683;-73
2021/10/13 07:39:55;;;;;;;4.57;2.20;;;;;;;6.94;74.57;98003.44;6242434;28;20204;-73
2021/10/13 07:42:57;;;;;;;6.17;2.73;;;;;;;7.04;74.45;98004.56;6241438;28;20308;-73
2021/10/13 07:46:00;;;;;;;4.17;2.10;;;;;;;6.95;73.08;98019.09;6258590;28;20217;-73
2021/10/13 07:49:02;;;;;;;3.33;2.17;;;;;;;6.92;72.35;98028.91;6239009;28;20211;-73
2021/10/13 07:52:05;;;;;;;2.40;1.90;;;;;;;7.03;73.11;98011.59;6240660;28;20204;-72
2021/10/13 07:55:07;;;;;;;2.90;2.13;;;;;;;7.21;72.64;98030.63;6241620;28;20200;-72
2021/10/13 07:58:09;;;;;;;3.77;2.23;;;;;;;7.29;71.21;98030.16;6258611;28;20196;-72
2021/10/13 08:01:11;;;;;;;2.70;2.30;;;;;;;7.48;70.45;98022.84;6241064;28;20204;-73
2021/10/13 08:04:13;;;;;;;2.40;2.10;;;;;;;7.62;68.58;98019.34;6239740;28;20318;-73
2021/10/13 08:07:18;;;;;;;2.50;2.00;;;;;;;7.61;70.74;98017.66;6241067;28;20218;-73
2021/10/13 08:10:22;;;;;;;4.00;2.20;;;;;;;7.54;69.74;98014.56;6258079;28;20195;-73
2021/10/13 08:13:24;;;;;;;4.17;2.27;;;;;;;7.41;69.77;98024.13;6258731;28;20184;-72
2021/10/13 08:16:26;;;;;;;3.50;2.03;;;;;;;7.43;69.37;98035.41;6259826;28;20266;-73
2021/10/13 08:19:29;;;;;;;3.60;2.50;;;;;;;7.47;68.98;98028.19;6256146;28;20304;-73
2021/10/13 08:22:31;;;;;;;4.50;2.13;;;;;;;7.54;70.25;98040.00;6259030;28;20546;-73
2021/10/13 08:25:33;;;;;;;3.33;1.87;;;;;;;7.64;69.14;98048.97;6240797;28;20207;-73
2021/10/13 08:28:35;;;;;;;4.17;2.27;;;;;;;7.69;68.70;98033.75;6240024;28;20696;-73
2021/10/13 08:31:37;;;;;;;2.47;1.90;;;;;;;7.78;68.14;98028.78;6242553;28;20562;-73
2021/10/13 08:34:39;;;;;;;5.07;1.97;;;;;;;8.17;67.74;98028.97;6256812;28;20266;-73
2021/10/13 08:37:42;;;;;;;3.40;1.90;;;;;;;8.50;65.31;98026.75;6253380;28;20211;-74
2021/10/13 08:40:44;;;;;;;2.47;1.90;;;;;;;8.78;65.63;98010.00;6257720;28;20251;-74
2021/10/13 08:43:46;;;;;;;2.90;1.93;;;;;;;8.73;64.45;98014.69;6257259;28;20193;-74
2021/10/13 08:46:48;;;;;;;2.47;2.00;;;;;;;8.73;65.25;98027.84;6239610;28;20214;-74
2021/10/13 08:49:51;;;;;;;2.20;2.00;;;;;;;8.86;63.95;98018.19;6238451;28;20200;-74
2021/10/13 08:53:03;;;;;;;2.70;2.20;;;;;;;9.24;63.35;98018.19;6255800;28;20687;-74
2021/10/13 08:56:05;;;;;;;3.53;2.20;;;;;;;9.38;62.86;98014.59;6254979;28;20249;-74
2021/10/13 08:59:07;;;;;;;2.10;1.90;;;;;;;9.40;63.13;98008.25;6236481;28;20225;-74
2021/10/13 09:02:11;;;;;;;2.60;2.07;;;;;;;9.66;63.99;98009.06;6257379;28;20461;-74
2021/10/13 09:05:25;;;;;;;3.70;2.20;;;;;;;9.48;62.07;98008.56;6257148;28;20742;-74
2021/10/13 09:08:27;;;;;;;3.30;2.10;;;;;;;9.91;61.45;98011.63;6256003;28;20205;-74
2021/10/13 09:11:36;;;;;;;2.70;2.00;;;;;;;9.96;61.98;98001.59;6237976;28;20187;-74
2021/10/13 09:14:38;;;;;;;3.50;2.13;;;;;;;9.84;62.33;98014.81;6239323;28;20289;-74
2021/10/13 09:17:55;;;;;;;2.20;1.70;;;;;;;9.26;62.44;98011.03;6240978;28;20603;-74
2021/10/13 09:20:58;;;;;;;2.80;1.60;;;;;;;8.83;63.21;98016.63;6259605;28;20192;-74
2021/10/13 09:24:09;;;;;;;2.87;1.43;;;;;;;8.85;63.34;98011.25;6239361;28;20292;-74
2021/10/13 09:27:29;;;;;;;3.10;1.50;;;;;;;8.92;63.62;98014.28;6237944;28;20216;-74
2021/10/13 09:30:39;;;;;;;1.93;1.00;;;;;;;8.88;62.31;98025.03;6253216;28;20229;-74
2021/10/13 09:34:01;;;;;;;1.80;1.00;;;;;;;9.09;62.31;98025.34;6239479;28;20191;-74
2021/10/13 09:37:03;;;;;;;2.53;1.27;;;;;;;9.11;60.60;98026.09;6253300;28;20192;-74
2021/10/13 09:40:06;;;;;;;1.37;0.83;;;;;;;9.28;61.02;98034.63;6253186;28;20209;-74
2021/10/13 09:43:27;;;;;;;1.57;0.83;;;;;;;9.48;59.62;98031.47;6239227;28;20201;-74
2021/10/13 09:46:32;;;;;;;1.30;0.90;;;;;;;9.78;57.98;98031.06;6251742;28;20265;-74
2021/10/13 09:49:40;;;;;;;1.00;0.90;;;;;;;10.02;56.09;98031.94;6257240;28;20190;-74
2021/10/13 09:52:43;;;;;;;1.13;0.80;;;;;;;10.62;53.81;98031.88;6255733;28;20289;-73
2021/10/13 09:55:47;;;;;;;1.00;0.90;;;;;;;10.80;52.47;98023.53;6256709;28;20321;-73
2021/10/13 09:59:06;;;;;;;1.97;0.87;;;;;;;10.67;54.43;98029.75;6236966;28;20196;-73
2021/10/13 10:02:08;;;;;;;2.70;1.80;;;;;;;10.49;54.76;98028.47;6239287;28;20230;-73
2021/10/13 10:05:16;;;;;;;1.20;0.80;;;;;;;10.29;54.76;98029.94;6257215;28;20207;-73
2021/10/13 10:08:18;;;;;;;4.10;0.70;;;;;;;10.78;51.92;98034.19;6255797;28;20198;-73
2021/10/13 10:11:27;;;;;;;1.50;0.87;;;;;;;11.29;50.86;98028.53;6253818;28;20192;-73
2021/10/13 10:14:32;;;;;;;0.60;0.50;;;;;;;11.82;50.54;98021.72;6255642;28;20599;-73
2021/10/13 10:17:39;;;;;;;1.70;0.50;;;;;;;12.30;50.09;98018.69;6252288;28;20189;-74
2021/10/13 10:20:41;;;;;;;1.50;0.50;;;;;;;12.80;47.69;98014.50;6253245;28;20215;-74
2021/10/13 10:23:52;;;;;;;2.83;0.70;;;;;;;12.99;47.31;98025.22;6256033;28;20712;-73
2021/10/13 10:27:26;;;;;;;0.80;0.57;;;;;;;12.15;47.75;98020.81;6255697;28;20228;-74
2021/10/13 10:30:28;;;;;;;1.50;0.67;;;;;;;11.34;46.00;98021.09;6252764;28;20374;-72
2021/10/13 10:33:32;;;;;;;0.80;0.70;;;;;;;10.96;49.18;98032.84;6244270;28;20401;-72
2021/10/13 10:36:33;;;;;;;1.73;0.67;;;;;;;10.57;49.65;98033.19;6239177;28;20191;-72
2021/10/13 10:39:57;;;;;;;0.67;0.60;;;;;;;10.53;51.43;98037.84;6254825;28;20195;-72
2021/10/13 10:43:07;;;;;;;1.13;0.60;;;;;;;10.35;51.71;98026.03;6256446;28;20195;-72
2021/10/13 10:46:09;;;;;;;0.53;0.50;;;;;;;10.00;52.27;98031.19;6255924;28;20297;-72
2021/10/13 10:49:11;;;;;;;1.53;0.70;;;;;;;9.78;53.15;98031.06;6236874;28;20551;-72
2021/10/13 10:52:22;;;;;;;0.77;0.50;;;;;;;9.56;53.41;98032.59;6239171;28;20185;-72
2021/10/13 10:55:35;;;;;;;0.97;0.73;;;;;;;9.37;54.55;98034.00;6254474;28;20540;-72
2021/10/13 10:58:37;;;;;;;1.13;0.80;;;;;;;9.21;54.81;98035.03;6254735;28;20202;-71
2021/10/13 11:02:11;;;;;;;1.20;0.97;;;;;;;9.06;54.97;98032.63;6243367;28;20188;-72
2021/10/13 11:05:13;;;;;;;0.77;0.50;;;;;;;8.75;55.68;98031.25;6260245;28;20588;-72
2021/10/13 11:08:16;;;;;;;2.37;0.77;;;;;;;8.71;56.93;98030.59;6259612;28;20671;-72
2021/10/13 11:11:18;;;;;;;0.90;0.70;;;;;;;8.75;57.55;98034.72;6240957;28;20826;-72
2021/10/13 11:14:26;;;;;;;0.80;0.80;;;;;;;8.88;57.71;98026.84;6242541;28;21128;-72
2021/10/13 11:17:32;;;;;;;2.37;0.77;;;;;;;8.88;58.11;98026.84;6257613;28;20566;-72
2021/10/13 11:20:34;;;;;;;1.20;0.60;;;;;;;8.84;57.80;98025.34;6242303;28;20198;-72
2021/10/13 11:23:36;;;;;;;1.43;0.83;;;;;;;8.81;58.17;98025.53;6259420;28;20191;-72
2021/10/13 11:26:43;;;;;;;0.97;0.70;;;;;;;8.71;58.61;98022.69;6259104;28;20564;-72
2021/10/13 11:29:47;;;;;;;1.40;0.97;;;;;;;8.80;58.88;98027.34;6254969;28;20231;-72
2021/10/13 11:32:49;;;;;;;0.97;0.63;;;;;;;8.94;58.97;98022.94;6239244;28;20188;-72
2021/10/13 11:36:03;;;;;;;1.20;0.73;;;;;;;9.24;60.06;98034.00;6259990;28;20616;-72
2021/10/13 11:39:05;;;;;;;1.30;1.07;;;;;;;9.53;58.82;98021.41;6257530;28;20199;-72
2021/10/13 11:42:14;;;;;;;1.47;0.70;;;;;;;10.11;58.61;98017.22;6259359;28;20191;-73
2021/10/13 11:45:19;;;;;;;1.70;0.80;;;;;;;10.28;56.52;98022.16;6242754;28;20215;-71
2021/10/13 11:48:29;;;;;;;0.83;0.40;;;;;;;10.40;56.30;98021.25;6257899;28;20193;-71
2021/10/13 11:51:31;;;;;;;1.93;0.60;;;;;;;10.34;56.76;98021.69;6255846;28;20189;-72
2021/10/13 11:54:33;;;;;;;2.20;0.70;;;;;;;10.38;55.61;98019.69;6241976;28;20194;-70
2021/10/13 11:57:37;;;;;;;0.80;0.60;;;;;;;11.33;54.44;98011.50;6258931;28;20184;-72
2021/10/13 12:00:48;;;;;;;1.23;0.70;;;;;;;12.22;50.35;98015.84;6258458;28;20196;-72
2021/10/13 12:03:50;;;;;;;1.30;0.70;;;;;;;12.72;49.50;98006.38;6258221;28;20192;-72
2021/10/13 12:06:52;;;;;;;2.13;0.90;;;;;;;12.92;47.45;98009.03;6259259;28;20208;-72
2021/10/13 12:09:59;;;;;;;2.63;0.60;;;;;;;12.92;46.88;98003.72;6259870;28;20221;-72
2021/10/13 12:13:04;;;;;;;1.37;0.80;;;;;;;13.15;47.45;97999.16;6239204;28;20545;-72
2021/10/13 12:16:09;;;;;;;0.77;0.57;;;;;;;12.98;47.00;97998.91;6257357;28;20187;-72
2021/10/13 12:19:12;;;;;;;2.20;1.30;;;;;;;13.09;47.83;98012.03;6259518;28;20198;-72
2021/10/13 12:22:14;;;;;;;1.60;1.33;;;;;;;12.95;49.16;98010.59;6240668;28;20208;-72
2021/10/13 12:25:34;;;;;;;2.80;1.77;;;;;;;12.64;49.61;98017.63;6259587;28;20699;-72
2021/10/13 12:28:37;;;;;;;2.00;1.80;;;;;;;11.98;51.51;98022.16;6255806;28;20581;-73
2021/10/13 12:31:40;;;;;;;2.00;1.80;;;;;;;11.47;53.27;98021.84;6242384;28;20194;-73
2021/10/13 12:34:43;;;;;;;1.80;1.70;;;;;;;11.18;55.18;98034.66;6240179;28;20194;-72
2021/10/13 12:37:46;;;;;;;2.70;1.80;;;;;;;10.79;56.39;98045.59;6241699;28;20285;-72
2021/10/13 12:41:05;;;;;;;2.07;1.80;;;;;;;10.37;57.99;98049.66;6239147;28;20195;-72
2021/10/13 12:44:17;;;;;;;2.17;1.67;;;;;;;10.30;58.53;98034.25;6256114;28;20193;-72
2021/10/13 12:47:19;;;;;;;2.50;1.47;;;;;;;10.29;58.33;98044.94;6259522;28;20223;-72
2021/10/13 12:50:21;;;;;;;2.80;1.47;;;;;;;10.29;59.24;98058.13;6239262;28;20192;-72
2021/10/13 12:53:23;;;;;;;0.80;0.80;;;;;;;10.30;57.10;98052.72;6257119;28;20199;-72
2021/10/13 12:56:25;;;;;;;3.23;1.00;;;;;;;10.81;55.33;98052.47;6258678;28;20185;-72
2021/10/13 12:59:28;;;;;;;2.00;0.80;;;;;;;10.96;54.88;98046.03;6257507;28;20533;-73
2021/10/13 13:02:30;;;;;;;0.60;0.60;;;;;;;11.19;54.09;98048.69;6258180;28;20192;-72
2021/10/13 13:05:33;;;;;;;2.53;0.97;;;;;;;11.83;53.21;98039.25;6256841;28;20204;-72
2021/10/13 13:08:36;;;;;;;1.50;0.93;;;;;;;12.33;51.17;98039.63;6256915;28;20210;-72
2021/10/13 13:11:38;;;;;;;1.23;1.07;;;;;;;12.40;51.31;98035.50;6254998;28;20188;-72
2021/10/13 13:14:41;;;;;;;1.03;0.90;;;;;;;12.34;50.60;98038.66;6258416;28;20195;-73
2021/10/13 13:17:43;;;;;;;2.27;1.30;;;;;;;11.90;52.19;98043.09;6256099;28;20199;-72
2021/10/13 13:20:45;;;;;;;1.67;1.23;;;;;;;11.60;53.14;98035.75;6223124;28;20194;-72
2021/10/13 13:23:51;;;;;;;2.33;1.47;;;;;;;12.42;52.96;98023.84;6258161;28;20192;-72
2021/10/13 13:26:53;;;;;;;1.53;1.40;;;;;;;14.50;47.78;98022.63;6238688;28;20218;-72
2021/10/13 13:29:55;;;;;;;1.63;1.20;;;;;;;14.86;46.00;98021.09;6254550;28;20314;-72
2021/10/13 13:32:57;;;;;;;2.17;1.47;;;;;;;14.46;47.06;98018.56;6256532;28;20201;-72
2021/10/13 13:35:59;;;;;;;1.27;1.13;;;;;;;16.71;42.32;98020.97;6257458;28;20235;-72
2021/10/13 13:39:02;;;;;;;1.30;1.20;;;;;;;15.49;43.89;98033.66;6253699;28;20198;-72
2021/10/13 13:42:04;;;;;;;1.33;1.13;;;;;;;13.44;46.69;98040.88;6256522;28;20214;-72
2021/10/13 13:45:08;;;;;;;0.70;0.70;;;;;;;12.34;49.90;98049.25;6240623;28;20197;-72
2021/10/13 13:48:11;;;;;;;1.00;0.90;;;;;;;11.46;51.00;98052.72;6238652;28;20215;-71
2021/10/13 13:51:13;;;;;;;1.10;1.00;;;;;;;10.96;52.80;98063.69;6238938;28;20293;-72
2021/10/13 13:54:16;;;;;;;1.07;0.80;;;;;;;10.56;54.39;98064.03;6255815;28;20193;-72
2021/10/13 13:57:19;;;;;;;0.97;0.90;;;;;;;10.51;55.53;98057.38;6257063;28;20189;-72
2021/10/13 14:00:21;;;;;;;2.17;1.27;;;;;;;10.31;55.00;98058.84;6253687;28;20271;-72
2021/10/13 14:03:23;;;;;;;1.40;1.10;;;;;;;10.10;56.65;98071.78;6253684;28;20200;-72
2021/10/13 14:06:25;;;;;;;1.93;1.17;;;;;;;10.26;55.28;98075.03;6240345;28;20217;-72
2021/10/13 14:09:27;;;;;;;1.23;1.07;;;;;;;10.32;55.61;98071.09;6255650;28;20310;-72
2021/10/13 14:12:29;;;;;;;1.63;1.00;;;;;;;10.33;57.08;98078.06;6256686;28;20198;-72
2021/10/13 14:15:32;;;;;;;1.67;1.30;;;;;;;10.25;58.03;98083.91;6256657;28;20191;-72
2021/10/13 14:18:34;;;;;;;2.80;1.20;;;;;;;10.00;58.27;98081.28;6235819;28;20270;-73
2021/10/13 14:21:37;;;;;;;3.87;1.67;;;;;;;9.67;59.74;98078.44;6236949;28;20266;-72
2021/10/13 14:24:39;;;;;;;1.87;1.00;;;;;;;9.59;60.69;98092.97;6231279;28;20698;-72
2021/10/13 14:27:41;;;;;;;1.67;1.40;;;;;;;9.46;60.82;98091.31;6251444;28;20212;-72
2021/10/13 14:30:46;;;;;;;3.23;1.20;;;;;;;9.35;62.48;98085.94;6251441;28;20598;-72
2021/10/13 14:33:48;;;;;;;3.13;1.17;;;;;;;9.21;61.60;98086.88;6236380;28;20207;-72
2021/10/13 14:36:50;;;;;;;1.30;1.20;;;;;;;9.25;61.66;98093.63;6257250;28;20669;-72